Airfield :
LOGIN :

Register | Disclaimer

   EN    FR    IT 

 










Legend :    VFR   Marginal VFR   IFR   Intensive IFR   Very Intensive IFR
Visi :
Ceiling :
>= 8 km
>= 3000ft
5 to 8 km
1000 to 3000 ft
1500m to 5 km
500 to 1000 ft
800 to 1500m
200 to 500 ft
< 800m
< 200 ft
Symbols :   Thunderstorms  Fog  Heavy snow  Heavy precipitations  Wind > 20 kt
SIGMETs :     Misc.  Thunderstorms  Icing  Turbulence  Mountain Waves  Volcanic Ashes







- Airport Elevation : 776 ft
- IATA code : RMS


ETAR - Ramstein Air Base

CURRENT METAR :
  • 230556Z 00000KT 0200 R26/0600V0800 FG VV001 02/02 A3041 RMK AO2A SLP308 55011

EXPIRED METARs :
  • 230508Z AUTO 20003KT 0600 R26/0600V0800 FG VV001 02/ A3040 RMK AO2 SLP304 $
  • 230456Z 22003KT 0400 R26/0550V0600 FG VV001 02/02 A3040 RMK AO2A SLP304 $
  • 230356Z 00000KT 0400 R26/0550V0750 FG VV001 03/03 A3042 RMK AO2A SLP310 $

TAF TAF ETAR
Valid from the 23 at 02:00 until the 24 at 08:00 UTC


230206Z 2302/2408 VRB06KT 0400 FG SKC QNH3039INS
TEMPO 2304/2308 0800 FG
BECMG 2308/2309 25009KT 9999 NSW FEW030 QNH3030INS
BECMG 2310/2311 25015G25KT 9999 FEW030 BKN070 QNH3024INS
BECMG 2317/2318 27009KT 9999 BKN030 QNH3022INS
BECMG 2400/2401 26012G20KT 9999 BKN010 QNH3020INS TX15/2314Z TNM01/2305Z
No reported NOTAMs for that airfield.



MET'MAP, your aeronautical weather chart ! - Copyright ORBIFLY December 2007 - Disclaimer

ORBIFLY MET'MAP TEAM :

Programming & Development : Alexandra Zaïnal
Concept & Development : Baudouin d'Aumeries
Co-Development & Prog : Marc-Olivier Méhu
Technical & hardware support : Manuel Goepfert

Contact : metmap@orbifly.com




SOURCES & CREDITS :

   NOAA